Vermilion, Canada
Current Conditions -  °F | °C
As of 3:00 AM on Sunday 21 Dec 2014 (Local Time) from CYLL Reporting Station
Moderate Snow Moderate Snow  
Wind Chill:   Ceiling: 200
Heat Index: 14°   Visibility: 0.37mi
Dew Point: 12°   Wind: 12mph
Humidity: 93%   Direction: 110°ESE
Pressure: 29.39"   Gusts: 17mph
Location:  53.35°N, 110.86°W
Report Text: CYLL 211000Z AUTO 11010G15KT 3/8SM SN VV002 M10/M11 A2939 RMK ICG SLP997
Loading
Personal Weather Stations






























Interactive Weather Map New forecast layout! Learn more

10-Day Weather Forecast

Advertisements
Track Severe Weather on mobile